Ceyhan, Turkey
Current Conditions -  °F | °C
As of 6:20 PM on Wednesday 26 Nov 2014 (Local Time) from LTAG Reporting Station
Broken Clouds Broken Clouds  
Wind Chill: 52°   Ceiling: 3000
Heat Index: 52°   Visibility: 6mi
Dew Point: 46°   Wind: 2mph
Humidity: 82%   Direction: 340°NNW
Pressure: 29.8"   Gusts: NA
Location:  37.04°N, 35.82°E
Report Text: LTAG 261520Z 34002KT 9999 BKN030 BKN100 11/08 Q1009 TEMPO TL1600 -TSRA
Loading
Personal Weather Stations






























Interactive Weather Map New forecast layout! Learn more

10-Day Weather Forecast

Advertisements
Track Severe Weather on mobile